Time;durP1;ratioP1;P1;durP2;ratioP2;P2;SDS_P1;SDS_P2;PMS_P1;PMS_P2;Temp;Humidity;BMP_temperature;BMP_pressure;BME280_temperature;BME280_humidity;BME280_pressure;Samples;Min_cycle;Max_cycle;Signal;HPM_P1;HPM_P2
2021/08/09 00:01:50;;;;;;;5.43;3.33;;;;;;;30.01;48.24;100905.64;128388;1085;64278;-86
2021/08/09 00:04:16;;;;;;;4.85;3.30;;;;;;;30.01;47.77;100916.53;127979;1087;64706;-86
2021/08/09 00:06:43;;;;;;;5.47;3.20;;;;;;;30.00;48.46;100907.50;127936;1087;64099;-85
2021/08/09 00:09:09;;;;;;;4.37;3.00;;;;;;;30.01;48.17;100913.81;127989;1085;64274;-86
2021/08/09 00:11:36;;;;;;;4.60;3.30;;;;;;;30.00;48.20;100902.05;128010;1087;64131;-86
2021/08/09 00:14:04;;;;;;;5.73;3.30;;;;;;;30.00;48.25;100904.77;127927;1087;64169;-86
2021/08/09 00:16:30;;;;;;;4.70;3.03;;;;;;;29.99;47.95;100911.23;127956;1087;64485;-86
2021/08/09 00:18:56;;;;;;;4.63;3.00;;;;;;;30.00;48.00;100914.82;127993;1087;64172;-86
2021/08/09 00:21:22;;;;;;;5.00;3.50;;;;;;;30.00;47.82;100912.09;128020;1087;64300;-86
2021/08/09 00:23:49;;;;;;;5.13;3.30;;;;;;;30.00;47.79;100901.21;127993;1086;64157;-86
2021/08/09 00:26:15;;;;;;;4.43;3.30;;;;;;;29.99;48.17;100900.34;127907;1086;64163;-85
2021/08/09 00:28:42;;;;;;;6.75;3.90;;;;;;;29.99;47.75;100891.34;127956;1087;64105;-86
2021/08/09 00:31:11;;;;;;;5.50;3.50;;;;;;;29.99;47.88;100896.78;127951;1087;64068;-86
2021/08/09 00:33:38;;;;;;;4.93;3.40;;;;;;;29.98;48.13;100895.94;128008;1087;64098;-86
2021/08/09 00:36:04;;;;;;;5.43;3.60;;;;;;;29.98;48.33;100892.34;127998;1087;64376;-85
2021/08/09 00:38:33;;;;;;;4.83;3.40;;;;;;;29.98;48.01;100893.22;128034;1084;64160;-86
2021/08/09 00:41:00;;;;;;;5.00;3.40;;;;;;;29.98;48.00;100898.66;128531;1084;62281;-85
2021/08/09 00:43:26;;;;;;;4.63;3.33;;;;;;;29.98;48.32;100892.34;128502;1084;64147;-86
2021/08/09 00:45:52;;;;;;;4.50;3.27;;;;;;;29.97;48.28;100896.95;128489;1084;64201;-86
2021/08/09 00:48:19;;;;;;;4.53;3.20;;;;;;;29.98;47.83;100895.06;128474;1082;64295;-86
2021/08/09 00:50:47;;;;;;;4.40;3.20;;;;;;;29.98;47.90;100898.66;128935;1083;64128;-86
2021/08/09 00:53:15;;;;;;;5.17;3.40;;;;;;;29.97;48.14;100898.83;128467;1084;64233;-86
2021/08/09 00:55:42;;;;;;;4.53;3.13;;;;;;;29.97;48.20;100894.23;128500;1083;64137;-86
2021/08/09 00:58:10;;;;;;;4.93;3.17;;;;;;;29.97;47.82;100896.95;128494;1084;64125;-86
2021/08/09 01:00:37;;;;;;;4.67;3.33;;;;;;;29.97;47.75;100888.78;128506;1084;64243;-85
2021/08/09 01:03:05;;;;;;;5.67;3.10;;;;;;;29.97;48.12;100887.95;128519;1084;64227;-86
2021/08/09 01:05:35;;;;;;;5.17;3.13;;;;;;;29.96;48.06;100889.80;128486;1082;64138;-85
2021/08/09 01:08:43;;;;;;;5.83;3.50;;;;;;;29.96;48.27;100884.35;128901;1083;64272;-86
2021/08/09 01:11:19;;;;;;;4.70;3.20;;;;;;;29.96;47.87;100883.52;128931;1084;64137;-86
2021/08/09 01:13:59;;;;;;;5.47;3.40;;;;;;;29.96;47.83;100888.95;128494;1083;64269;-87
2021/08/09 01:16:27;;;;;;;5.33;3.13;;;;;;;29.96;48.27;100892.52;128923;1083;64147;-85
2021/08/09 01:19:27;;;;;;;4.93;3.37;;;;;;;29.95;48.23;100893.53;128506;1084;64224;-87
2021/08/09 01:21:57;;;;;;;4.97;3.20;;;;;;;29.95;48.32;100887.25;128528;1084;64131;-85
2021/08/09 01:24:39;;;;;;;5.37;3.00;;;;;;;29.95;47.89;100889.97;128481;1084;64310;-86
2021/08/09 01:27:29;;;;;;;5.53;3.20;;;;;;;29.95;48.21;100898.13;128509;1084;64169;-87
2021/08/09 01:29:58;;;;;;;4.30;3.17;;;;;;;29.95;48.31;100900.86;128505;1084;64479;-87
2021/08/09 01:32:25;;;;;;;4.53;3.27;;;;;;;29.94;47.91;100900.02;128486;1084;64121;-86
2021/08/09 01:34:51;;;;;;;5.20;3.50;;;;;;;29.94;47.80;100891.84;128486;1084;64565;-85
2021/08/09 01:37:17;;;;;;;4.27;3.03;;;;;;;29.95;47.97;100896.25;128501;1084;64115;-85
2021/08/09 01:39:45;;;;;;;4.00;3.03;;;;;;;29.95;48.28;100898.13;128471;1084;64664;-86
2021/08/09 01:42:12;;;;;;;4.23;3.23;;;;;;;29.94;48.31;100897.29;128515;1084;64466;-85
2021/08/09 01:44:40;;;;;;;4.97;3.10;;;;;;;29.95;48.31;100898.97;128480;1084;64134;-85
2021/08/09 01:47:06;;;;;;;4.47;3.27;;;;;;;29.93;48.13;100901.02;128481;1084;64099;-86
2021/08/09 01:49:32;;;;;;;4.40;3.10;;;;;;;29.94;47.98;100908.18;128458;1084;64275;-85
2021/08/09 01:52:00;;;;;;;5.63;3.27;;;;;;;29.93;48.30;100899.14;128493;1084;64301;-86
2021/08/09 01:54:26;;;;;;;5.90;3.30;;;;;;;29.93;48.25;100899.14;128517;1084;64147;-86
2021/08/09 01:56:53;;;;;;;5.23;3.17;;;;;;;29.94;47.93;100894.57;128465;1084;64173;-85
2021/08/09 01:59:23;;;;;;;4.90;3.27;;;;;;;29.94;47.91;100891.84;128460;1084;64154;-86
2021/08/09 02:01:52;;;;;;;5.07;3.30;;;;;;;29.93;47.84;100890.98;128911;1082;64185;-85
2021/08/09 02:04:19;;;;;;;5.60;3.20;;;;;;;29.92;48.10;100902.88;128480;1084;64122;-86
2021/08/09 02:06:46;;;;;;;4.40;3.03;;;;;;;29.93;48.09;100896.42;128457;1084;64203;-86
2021/08/09 02:09:12;;;;;;;4.73;3.43;;;;;;;29.92;47.78;100897.44;128461;1084;64428;-86
2021/08/09 02:12:07;;;;;;;5.10;3.30;;;;;;;29.92;48.22;100897.44;128509;1084;64298;-85
2021/08/09 02:14:40;;;;;;;4.70;3.20;;;;;;;29.92;47.88;100899.31;128357;1085;64128;-87
2021/08/09 02:17:13;;;;;;;5.10;3.30;;;;;;;29.92;48.23;100897.44;127997;1087;64122;-86
2021/08/09 02:20:07;;;;;;;5.17;3.20;;;;;;;29.92;48.21;100904.76;128016;1087;64233;-85
2021/08/09 02:22:42;;;;;;;5.63;3.50;;;;;;;29.92;48.20;100907.48;128016;1087;64674;-85
2021/08/09 02:25:13;;;;;;;4.63;3.20;;;;;;;29.92;48.04;100913.76;128013;1087;64215;-85
2021/08/09 02:27:50;;;;;;;4.70;3.10;;;;;;;29.92;48.30;100915.64;128015;1087;64179;-86
2021/08/09 02:30:20;;;;;;;4.10;3.10;;;;;;;29.91;48.31;100914.80;127920;1087;64102;-85
2021/08/09 02:32:47;;;;;;;5.07;3.67;;;;;;;29.92;48.23;100915.64;128033;1087;64273;-86
2021/08/09 02:35:15;;;;;;;4.57;3.27;;;;;;;29.91;48.10;100922.97;127990;1087;64099;-86
2021/08/09 02:37:42;;;;;;;5.13;3.47;;;;;;;29.91;47.98;100917.52;128008;1087;64145;-85
2021/08/09 02:40:10;;;;;;;4.83;3.10;;;;;;;29.91;48.34;100908.48;127992;1086;63978;-85
2021/08/09 02:42:36;;;;;;;4.17;3.17;;;;;;;29.91;48.45;100917.52;127934;1087;64301;-86
2021/08/09 02:45:04;;;;;;;4.33;3.10;;;;;;;29.91;48.42;100911.20;128002;1087;64124;-86
2021/08/09 02:47:37;;;;;;;4.28;3.03;;;;;;;29.91;48.55;100913.93;127944;1087;64290;-85
2021/08/09 02:50:09;;;;;;;5.70;3.23;;;;;;;29.90;48.13;100910.37;127979;1087;64249;-85
2021/08/09 02:52:35;;;;;;;3.90;2.90;;;;;;;29.90;48.50;100913.09;128435;1084;64238;-86
2021/08/09 02:55:02;;;;;;;5.10;3.60;;;;;;;29.90;48.53;100915.81;128478;1084;64132;-86
2021/08/09 02:57:28;;;;;;;4.60;3.03;;;;;;;29.90;48.14;100918.53;128482;1084;64157;-87
2021/08/09 02:59:59;;;;;;;4.50;3.00;;;;;;;29.90;47.90;100918.53;128472;1084;64134;-86
2021/08/09 03:02:25;;;;;;;4.43;3.30;;;;;;;29.89;48.56;100930.43;128952;1082;64214;-86
2021/08/09 03:04:52;;;;;;;4.70;3.10;;;;;;;29.89;48.50;100932.31;128861;1082;64102;-85
2021/08/09 03:07:18;;;;;;;5.20;3.30;;;;;;;29.89;48.20;100930.43;128490;1084;64301;-86
2021/08/09 03:09:44;;;;;;;4.27;3.10;;;;;;;29.89;48.25;100927.70;128893;1084;64664;-87
2021/08/09 03:12:16;;;;;;;6.27;3.30;;;;;;;29.89;48.70;100933.16;128514;1082;64211;-86
2021/08/09 03:14:53;;;;;;;5.30;3.50;;;;;;;29.90;48.65;100934.02;128501;1084;64173;-84
2021/08/09 03:17:19;;;;;;;5.13;3.33;;;;;;;29.88;48.66;100928.72;128943;1084;64099;-85
2021/08/09 03:19:46;;;;;;;5.00;3.10;;;;;;;29.89;48.76;100937.75;128499;1084;64237;-85
2021/08/09 03:22:12;;;;;;;5.40;3.33;;;;;;;29.89;48.61;100930.43;128532;1084;64128;-84
2021/08/09 03:24:39;;;;;;;4.77;3.50;;;;;;;29.90;48.36;100939.47;128591;1084;64134;-85
2021/08/09 03:27:05;;;;;;;7.00;3.65;;;;;;;29.90;48.36;100937.58;129011;1081;64268;-84
2021/08/09 03:29:31;;;;;;;4.97;3.47;;;;;;;29.90;48.66;100940.30;129122;1084;64180;-85
2021/08/09 03:31:59;;;;;;;5.57;3.63;;;;;;;29.91;48.73;100943.87;128542;1083;64013;-85
2021/08/09 03:34:26;;;;;;;4.83;3.40;;;;;;;29.90;48.45;100940.30;128912;1084;64121;-85
2021/08/09 03:36:53;;;;;;;5.20;3.30;;;;;;;29.91;48.03;100952.91;128487;1083;64122;-85
2021/08/09 03:39:22;;;;;;;5.15;3.20;;;;;;;29.91;48.35;100952.03;128499;1084;64452;-86
2021/08/09 03:41:49;;;;;;;4.80;3.57;;;;;;;29.91;48.69;100946.59;128505;1084;64395;-86
2021/08/09 03:44:15;;;;;;;5.70;3.70;;;;;;;29.90;48.49;100951.19;128458;1083;65730;-85
2021/08/09 03:46:45;;;;;;;6.43;3.63;;;;;;;29.91;48.55;100963.78;128460;1084;64106;-86
2021/08/09 03:49:11;;;;;;;4.33;3.27;;;;;;;29.91;48.70;100961.06;128485;1084;64144;-86
2021/08/09 03:51:40;;;;;;;5.30;3.60;;;;;;;29.90;48.75;100962.08;128537;1084;64191;-85
2021/08/09 03:54:09;;;;;;;4.67;3.33;;;;;;;29.90;48.29;100962.08;128532;1084;64093;-86
2021/08/09 03:56:35;;;;;;;4.53;3.53;;;;;;;29.90;48.54;100963.95;128499;1084;64144;-86
2021/08/09 03:59:01;;;;;;;5.63;3.30;;;;;;;29.90;48.33;100967.52;128470;1084;64128;-86
2021/08/09 04:01:27;;;;;;;5.70;3.13;;;;;;;29.90;48.46;100972.96;128527;1084;64336;-86
2021/08/09 04:03:54;;;;;;;5.20;3.40;;;;;;;29.90;48.59;100975.69;128476;1083;64613;-86
2021/08/09 04:06:21;;;;;;;5.17;3.13;;;;;;;29.89;48.17;100979.41;128499;1083;64202;-85
2021/08/09 04:08:49;;;;;;;4.57;3.10;;;;;;;29.90;48.60;100980.28;128910;1084;64146;-86
2021/08/09 04:11:16;;;;;;;5.08;3.15;;;;;;;29.90;47.95;100985.73;128548;1084;64246;-86
2021/08/09 04:13:43;;;;;;;5.20;3.55;;;;;;;29.89;48.56;100976.69;128507;1083;64192;-85
2021/08/09 04:16:09;;;;;;;5.80;3.20;;;;;;;29.90;48.46;100977.56;128490;1084;64286;-86
2021/08/09 04:18:36;;;;;;;5.33;3.40;;;;;;;29.89;48.06;100971.25;128492;1084;64294;-85
2021/08/09 04:21:25;;;;;;;4.40;3.23;;;;;;;29.89;48.49;100979.41;128483;1084;64196;-86
2021/08/09 04:23:53;;;;;;;4.37;3.30;;;;;;;29.89;48.30;100968.53;127918;1086;64179;-86
2021/08/09 04:26:23;;;;;;;5.20;3.60;;;;;;;29.89;48.06;100973.97;128019;1086;64298;-85
2021/08/09 04:28:49;;;;;;;4.57;3.23;;;;;;;29.89;48.66;100965.80;128022;1086;64269;-85
2021/08/09 04:31:17;;;;;;;5.27;3.30;;;;;;;29.89;48.19;100970.41;127901;1087;64240;-86
2021/08/09 04:33:47;;;;;;;5.23;3.20;;;;;;;29.90;47.75;100969.40;127947;1087;64144;-85
2021/08/09 04:36:14;;;;;;;5.00;3.57;;;;;;;29.89;48.22;100970.41;127915;1087;64171;-85
2021/08/09 04:38:40;;;;;;;4.60;3.27;;;;;;;29.89;48.39;100962.25;128026;1087;64362;-86
2021/08/09 04:41:10;;;;;;;5.18;3.20;;;;;;;29.90;48.00;100974.84;128016;1087;64316;-87
2021/08/09 04:43:37;;;;;;;4.80;3.43;;;;;;;29.90;48.03;100977.56;128320;1087;64144;-86
2021/08/09 04:46:05;;;;;;;4.57;3.13;;;;;;;29.90;47.90;100989.29;127902;1087;64109;-85
2021/08/09 04:48:31;;;;;;;5.17;3.63;;;;;;;29.91;48.29;100990.13;128385;1087;64114;-85
2021/08/09 04:50:57;;;;;;;5.90;3.60;;;;;;;29.90;48.13;100992.02;128001;1087;64169;-85
2021/08/09 04:53:27;;;;;;;5.17;3.47;;;;;;;29.90;48.29;101000.17;128018;1087;64396;-87
2021/08/09 04:55:54;;;;;;;4.80;3.33;;;;;;;29.91;47.93;100998.30;128350;1087;64153;-85
2021/08/09 04:58:20;;;;;;;6.00;3.50;;;;;;;29.90;48.44;100991.17;128015;1087;64095;-86
2021/08/09 05:00:47;;;;;;;5.25;3.40;;;;;;;29.91;48.30;101001.02;128122;1084;64160;-85
2021/08/09 05:03:13;;;;;;;4.80;3.63;;;;;;;29.92;48.48;101000.84;128529;1084;64343;-85
2021/08/09 05:05:43;;;;;;;5.17;3.40;;;;;;;29.92;48.62;101002.73;128485;1084;64652;-85
2021/08/09 05:08:33;;;;;;;4.90;3.17;;;;;;;29.92;48.52;101014.45;128929;1084;64269;-86
2021/08/09 05:11:02;;;;;;;5.47;3.60;;;;;;;29.93;48.49;101004.44;128370;1087;64148;-87
2021/08/09 05:13:28;;;;;;;5.63;3.30;;;;;;;29.93;48.04;100999.00;127929;1087;64268;-85
2021/08/09 05:15:54;;;;;;;5.03;3.57;;;;;;;29.92;48.09;101006.29;127993;1086;64271;-85
2021/08/09 05:18:21;;;;;;;4.20;3.10;;;;;;;29.93;47.84;101009.88;128342;1086;64314;-85
2021/08/09 05:20:48;;;;;;;5.27;3.90;;;;;;;29.92;48.29;101002.73;128031;1087;64304;-86
2021/08/09 05:23:15;;;;;;;5.70;3.53;;;;;;;29.92;48.19;101009.02;127998;1085;64127;-85
2021/08/09 05:25:47;;;;;;;6.13;3.53;;;;;;;29.94;48.14;101008.88;128358;1087;64237;-87
2021/08/09 05:28:13;;;;;;;;;;;;;;;29.91;47.96;101007.33;128399;1086;64269;-85
2021/08/09 05:30:39;;;;;;;5.43;3.70;;;;;;;29.90;48.15;101002.06;127943;1087;64530;-85
2021/08/09 05:33:05;;;;;;;8.93;3.90;;;;;;;29.90;47.52;101007.50;127912;1087;64160;-85
2021/08/09 05:35:31;;;;;;;5.90;3.73;;;;;;;29.90;47.60;101016.50;127996;1087;64102;-85
2021/08/09 05:37:58;;;;;;;5.57;3.60;;;;;;;29.92;47.39;101013.61;127916;1087;64141;-85
2021/08/09 05:40:25;;;;;;;5.30;3.37;;;;;;;29.91;47.60;101007.33;128033;1087;64240;-85
2021/08/09 05:42:51;;;;;;;7.77;3.93;;;;;;;29.91;47.28;101011.90;127972;1087;64163;-84
2021/08/09 05:45:19;;;;;;;11.20;4.70;;;;;;;29.89;47.20;101008.51;127979;1087;64280;-85
2021/08/09 05:47:45;;;;;;;16.83;5.18;;;;;;;29.82;46.43;101002.83;128045;1084;64112;-85
2021/08/09 05:50:12;;;;;;;17.70;5.07;;;;;;;29.76;45.77;101004.34;128481;1084;64214;-85
2021/08/09 05:52:38;;;;;;;13.80;4.90;;;;;;;29.69;44.85;101010.59;128482;1084;64131;-85
2021/08/09 05:55:06;;;;;;;13.13;4.80;;;;;;;29.61;44.27;101005.95;128906;1084;64137;-86
2021/08/09 05:57:32;;;;;;;6.97;4.80;;;;;;;29.54;43.95;101010.34;128495;1082;64131;-84
2021/08/09 05:59:58;;;;;;;8.90;5.43;;;;;;;29.51;43.56;101011.52;128891;1084;64125;-85
2021/08/09 06:02:24;;;;;;;17.07;5.23;;;;;;;29.45;43.33;101003.98;128940;1083;64148;-83
2021/08/09 06:04:59;;;;;;;12.03;5.13;;;;;;;29.42;42.71;101010.59;128886;1082;64009;-86
2021/08/09 06:07:25;;;;;;;10.90;5.07;;;;;;;29.40;42.92;101017.20;128477;1082;64296;-85
2021/08/09 06:10:00;;;;;;;8.07;4.50;;;;;;;29.38;42.54;101011.93;128512;1083;64096;-86
2021/08/09 06:12:26;;;;;;;12.30;4.90;;;;;;;29.35;42.74;101014.98;128871;1083;65372;-85
2021/08/09 06:14:53;;;;;;;12.63;5.00;;;;;;;29.34;42.14;101006.98;128504;1084;64147;-84
2021/08/09 06:17:20;;;;;;;12.30;5.10;;;;;;;29.33;41.71;101002.55;128783;1084;64086;-85
2021/08/09 06:19:47;;;;;;;8.27;5.00;;;;;;;29.33;41.62;101011.55;128421;1084;64362;-85
2021/08/09 06:22:13;;;;;;;13.77;4.83;;;;;;;29.33;41.70;100999.84;128388;1084;64085;-86
2021/08/09 06:24:39;;;;;;;12.27;4.87;;;;;;;29.30;41.47;101002.88;128739;1082;64144;-84
2021/08/09 06:27:05;;;;;;;11.73;5.23;;;;;;;29.28;41.34;101010.33;128394;1084;64285;-84
2021/08/09 06:29:32;;;;;;;11.47;5.07;;;;;;;29.24;41.26;101009.75;128812;1083;64169;-85
2021/08/09 06:31:58;;;;;;;15.23;5.90;;;;;;;29.24;41.42;101010.63;128404;1083;63934;-85
2021/08/09 06:34:25;;;;;;;13.53;5.50;;;;;;;29.25;40.90;101004.19;128813;1082;64265;-85
2021/08/09 06:36:55;;;;;;;10.57;5.23;;;;;;;29.28;41.02;101002.17;128814;1083;63462;-85
2021/08/09 06:39:21;;;;;;;8.97;5.00;;;;;;;29.31;40.83;100996.41;128841;1084;64215;-84
2021/08/09 06:41:47;;;;;;;10.55;5.45;;;;;;;29.34;41.16;100999.67;128363;1084;64089;-84
2021/08/09 06:44:15;;;;;;;9.90;4.83;;;;;;;29.38;41.23;100994.78;128419;1083;64128;-84
2021/08/09 06:46:42;;;;;;;13.77;5.33;;;;;;;29.39;40.93;100994.61;128803;1084;64284;-84
2021/08/09 06:49:08;;;;;;;9.00;5.73;;;;;;;29.37;41.06;100991.19;128415;1084;63962;-84
2021/08/09 06:51:35;;;;;;;11.23;5.73;;;;;;;29.36;41.15;100996.79;128445;1084;64128;-84
2021/08/09 06:54:03;;;;;;;9.97;5.80;;;;;;;29.37;40.84;100996.63;128397;1082;64224;-84
2021/08/09 06:56:30;;;;;;;18.35;6.13;;;;;;;29.38;41.08;100990.17;128282;1084;64275;-84
2021/08/09 06:58:56;;;;;;;16.17;6.23;;;;;;;29.41;41.07;100992.56;128297;1084;64128;-83
2021/08/09 07:01:26;;;;;;;11.60;5.67;;;;;;;29.43;40.64;100987.84;128292;1084;64099;-84
2021/08/09 07:03:53;;;;;;;21.33;6.07;;;;;;;29.49;41.02;100980.05;128253;1084;64298;-84
2021/08/09 07:06:21;;;;;;;17.10;5.90;;;;;;;29.52;41.09;100986.00;128265;1084;64108;-84
2021/08/09 07:08:49;;;;;;;11.35;5.83;;;;;;;29.54;40.80;100994.87;128305;1084;64129;-84
2021/08/09 07:11:16;;;;;;;11.73;5.93;;;;;;;29.57;41.07;100999.97;128258;1084;63968;-84
2021/08/09 07:13:43;;;;;;;16.73;6.00;;;;;;;29.58;40.62;100985.36;128256;1084;64208;-83
2021/08/09 07:16:09;;;;;;;18.50;5.83;;;;;;;29.61;40.77;100988.79;128265;1082;64355;-84
2021/08/09 07:18:37;;;;;;;12.30;6.50;;;;;;;29.59;40.42;100992.52;128314;1084;64385;-84
2021/08/09 07:21:03;;;;;;;15.83;6.60;;;;;;;29.60;40.68;100993.36;128308;1084;64099;-83
2021/08/09 07:23:29;;;;;;;10.80;5.87;;;;;;;29.61;40.77;100997.79;128297;1084;64327;-84
2021/08/09 07:25:55;;;;;;;10.47;5.93;;;;;;;29.62;40.49;100993.19;128341;1084;64136;-84
2021/08/09 07:28:21;;;;;;;12.37;6.40;;;;;;;29.63;40.45;100994.91;128209;1084;64266;-84
2021/08/09 07:30:48;;;;;;;9.17;5.93;;;;;;;29.63;40.15;101003.94;128397;1084;65701;-84
2021/08/09 07:33:14;;;;;;;10.23;5.93;;;;;;;29.65;40.61;101003.77;128503;1084;64150;-83
2021/08/09 07:35:41;;;;;;;11.70;5.60;;;;;;;29.68;40.65;101009.72;128432;1082;64364;-83
2021/08/09 07:38:07;;;;;;;9.07;5.00;;;;;;;29.71;40.79;101012.14;128357;1084;64127;-84
2021/08/09 07:40:34;;;;;;;13.50;5.20;;;;;;;29.73;40.39;101011.97;128280;1084;64856;-84
2021/08/09 07:43:01;;;;;;;9.73;5.17;;;;;;;29.76;40.41;101011.63;128271;1084;64134;-83
2021/08/09 07:45:27;;;;;;;12.10;5.33;;;;;;;29.76;40.20;101012.51;128300;1084;64651;-86
2021/08/09 07:47:53;;;;;;;8.53;5.27;;;;;;;29.80;40.35;101017.61;128282;1083;64154;-83
2021/08/09 07:50:20;;;;;;;19.40;6.03;;;;;;;29.80;40.68;101017.61;128268;1084;64256;-84
2021/08/09 07:52:46;;;;;;;14.30;5.67;;;;;;;29.78;40.45;101012.34;128246;1084;62384;-83
2021/08/09 07:55:12;;;;;;;10.17;5.23;;;;;;;29.79;39.97;101018.63;128250;1084;62196;-83
2021/08/09 07:57:39;;;;;;;11.03;5.17;;;;;;;29.81;40.31;101022.89;128316;1084;64783;-85
2021/08/09 08:00:05;;;;;;;9.57;5.93;;;;;;;29.84;40.42;101021.71;128297;1082;64227;-84
2021/08/09 08:02:31;;;;;;;8.93;5.13;;;;;;;29.85;40.81;101021.55;128269;1084;64158;-84
2021/08/09 08:04:58;;;;;;;10.33;5.70;;;;;;;29.88;40.63;101025.84;128282;1084;64160;-84
2021/08/09 08:07:24;;;;;;;9.78;5.23;;;;;;;29.88;40.72;101025.84;128440;1082;64166;-84
2021/08/09 08:09:50;;;;;;;9.40;5.20;;;;;;;29.89;40.57;101031.12;128400;1084;64230;-84
2021/08/09 08:12:16;;;;;;;23.50;5.77;;;;;;;29.91;40.69;101026.38;128378;1084;64179;-84
2021/08/09 08:14:44;;;;;;;26.80;6.23;;;;;;;29.92;40.50;101030.78;128321;1084;64956;-85
2021/08/09 08:17:10;;;;;;;29.83;6.40;;;;;;;29.95;40.54;101023.33;128322;1084;64125;-84
2021/08/09 08:19:36;;;;;;;22.20;5.70;;;;;;;29.96;40.47;101030.48;128311;1084;64336;-83
2021/08/09 08:22:03;;;;;;;23.10;5.63;;;;;;;29.98;40.67;101029.30;128272;1084;64131;-83
2021/08/09 08:24:29;;;;;;;23.27;6.10;;;;;;;29.99;40.49;101027.42;127923;1084;64291;-83
2021/08/09 08:26:55;;;;;;;14.03;5.50;;;;;;;29.99;41.04;101032.86;128231;1084;64256;-84
2021/08/09 08:29:21;;;;;;;21.83;5.60;;;;;;;30.00;40.56;101026.41;128310;1083;64156;-84
2021/08/09 08:31:47;;;;;;;24.47;5.63;;;;;;;30.02;40.46;101024.36;128262;1084;64157;-84
2021/08/09 08:34:13;;;;;;;24.83;5.50;;;;;;;30.03;40.50;101021.50;128296;1084;64208;-83
2021/08/09 08:36:39;;;;;;;18.17;4.70;;;;;;;30.03;40.18;101021.50;128280;1084;64267;-84
2021/08/09 08:39:10;;;;;;;17.35;5.35;;;;;;;30.03;40.21;101016.06;128281;1084;64265;-83
2021/08/09 08:41:44;;;;;;;14.00;5.00;;;;;;;30.04;40.17;101015.02;128302;1083;64125;-84
2021/08/09 08:44:10;;;;;;;14.80;5.33;;;;;;;30.06;40.35;101025.73;128223;1084;64127;-84
2021/08/09 08:46:38;;;;;;;15.93;5.43;;;;;;;30.07;40.78;101017.44;128385;1084;64272;-84
2021/08/09 08:49:05;;;;;;;13.55;5.25;;;;;;;30.08;40.66;101018.27;128785;1084;64143;-84
2021/08/09 08:51:32;;;;;;;16.27;5.03;;;;;;;30.07;40.76;101017.44;128392;1083;64491;-84
2021/08/09 08:53:58;;;;;;;10.57;5.07;;;;;;;30.08;40.38;101008.22;128403;1082;64092;-84
2021/08/09 08:56:25;;;;;;;12.75;4.65;;;;;;;30.09;40.62;101012.66;128373;1082;64133;-84
2021/08/09 08:58:51;;;;;;;12.17;4.43;;;;;;;30.11;40.67;101011.65;128341;1082;64306;-84
2021/08/09 09:01:37;;;;;;;10.67;4.00;;;;;;;30.10;39.91;101005.36;128390;1082;64214;-84
2021/08/09 09:04:25;;;;;;;12.13;4.90;;;;;;;30.11;39.90;101009.77;128391;1084;62214;-84
2021/08/09 09:07:02;;;;;;;15.45;4.50;;;;;;;30.10;40.10;101008.09;128711;1082;64230;-84
2021/08/09 09:09:33;;;;;;;10.43;5.00;;;;;;;30.11;40.38;101012.48;129034;1082;64165;-84
2021/08/09 09:12:18;;;;;;;10.43;4.53;;;;;;;30.13;40.08;101004.15;128440;1083;64107;-84
2021/08/09 09:14:44;;;;;;;9.10;4.37;;;;;;;30.13;39.94;101007.75;128395;1084;64172;-83
2021/08/09 09:17:13;;;;;;;11.90;4.87;;;;;;;30.15;40.18;101011.14;128319;1084;64658;-84
2021/08/09 09:19:44;;;;;;;10.47;4.50;;;;;;;30.16;39.84;101012.02;128420;1083;64147;-84
2021/08/09 09:22:23;;;;;;;11.10;4.43;;;;;;;30.16;39.88;101014.73;128408;1084;63991;-83
2021/08/09 09:24:51;;;;;;;12.83;4.73;;;;;;;30.16;40.11;101006.56;128380;1084;64176;-84
2021/08/09 09:27:29;;;;;;;9.87;4.23;;;;;;;30.16;39.49;101003.84;128380;1082;64137;-84
2021/08/09 09:29:55;;;;;;;13.00;4.43;;;;;;;30.17;39.82;101009.12;128378;1084;64198;-84
2021/08/09 09:32:23;;;;;;;10.90;4.43;;;;;;;30.15;39.83;101005.70;128400;1084;64160;-84
2021/08/09 09:34:50;;;;;;;10.83;4.30;;;;;;;30.17;39.47;101000.11;128786;1083;64066;-84
2021/08/09 09:37:29;;;;;;;9.80;4.50;;;;;;;30.16;39.92;100995.67;128486;1084;64214;-83
2021/08/09 09:40:07;;;;;;;11.80;4.40;;;;;;;30.16;39.71;100998.40;128392;1083;64208;-84
2021/08/09 09:42:34;;;;;;;9.80;4.17;;;;;;;30.16;39.83;100993.80;128406;1084;64173;-84
2021/08/09 09:45:18;;;;;;;10.50;3.90;;;;;;;30.16;39.88;100990.23;128387;1082;64176;-84
2021/08/09 09:47:44;;;;;;;11.67;4.40;;;;;;;30.16;39.50;100988.35;128486;1084;64169;-84
2021/08/09 09:50:24;;;;;;;13.67;4.70;;;;;;;30.17;39.49;100994.67;128409;1084;64096;-84
2021/08/09 09:52:50;;;;;;;8.73;4.37;;;;;;;30.16;39.71;100988.35;128388;1084;64301;-84
2021/08/09 09:55:17;;;;;;;9.67;3.80;;;;;;;30.17;39.24;100978.33;128393;1084;64019;-84
2021/08/09 09:57:44;;;;;;;7.90;4.00;;;;;;;30.16;38.99;100982.91;128388;1083;64364;-84
2021/08/09 10:00:16;;;;;;;14.20;3.83;;;;;;;30.17;39.29;100975.61;128423;1084;64127;-85
2021/08/09 10:02:44;;;;;;;9.90;4.17;;;;;;;30.17;39.46;100973.72;128405;1084;64175;-84
2021/08/09 10:05:10;;;;;;;6.55;3.78;;;;;;;30.16;38.84;100977.45;128384;1084;64062;-84
2021/08/09 10:07:37;;;;;;;7.07;3.97;;;;;;;30.18;39.13;100980.88;128389;1082;64156;-84
2021/08/09 10:10:07;;;;;;;8.27;4.00;;;;;;;30.18;39.22;100977.29;128809;1082;61865;-84
2021/08/09 10:12:33;;;;;;;6.80;3.87;;;;;;;30.18;38.78;100978.16;128403;1084;62166;-84
2021/08/09 10:14:59;;;;;;;9.37;4.37;;;;;;;30.18;39.32;100975.44;128769;1084;64149;-83
2021/08/09 10:17:27;;;;;;;11.23;4.43;;;;;;;30.17;39.29;100968.28;128336;1084;66194;-84
2021/08/09 10:19:56;;;;;;;10.75;4.10;;;;;;;30.17;39.18;100965.56;128852;1084;64323;-84
2021/08/09 10:22:23;;;;;;;8.10;3.50;;;;;;;30.18;39.47;100956.38;128824;1083;64247;-84
2021/08/09 10:24:51;;;;;;;8.67;3.80;;;;;;;30.17;39.53;100957.39;128405;1083;64122;-84
2021/08/09 10:27:47;;;;;;;7.47;4.17;;;;;;;30.19;39.55;100959.94;128378;1084;64099;-84
2021/08/09 10:30:23;;;;;;;6.73;3.60;;;;;;;30.18;39.27;100956.38;128771;1083;62248;-85
2021/08/09 10:32:53;;;;;;;10.70;4.27;;;;;;;30.19;39.09;100962.66;128342;1082;64317;-84
2021/08/09 10:35:36;;;;;;;7.43;4.23;;;;;;;30.18;39.63;100959.10;128941;1082;61619;-84
2021/08/09 10:38:24;;;;;;;8.27;4.20;;;;;;;30.18;39.62;100960.95;128814;1084;64106;-84
2021/08/09 10:41:09;;;;;;;6.38;3.73;;;;;;;30.19;39.57;100957.22;128369;1084;64323;-84
2021/08/09 10:43:40;;;;;;;11.50;3.80;;;;;;;30.18;39.22;100956.38;128803;1082;64169;-84
2021/08/09 10:46:36;;;;;;;7.37;3.90;;;;;;;30.18;39.61;100948.21;128847;1082;64191;-84
2021/08/09 10:49:03;;;;;;;7.37;4.00;;;;;;;30.18;39.28;100945.48;128802;1082;64140;-84
2021/08/09 10:51:54;;;;;;;9.33;4.07;;;;;;;30.18;39.70;100945.48;128795;1084;64009;-84
2021/08/09 10:54:30;;;;;;;18.50;4.83;;;;;;;30.17;39.67;100932.89;128838;1084;64211;-85
2021/08/09 10:56:57;;;;;;;18.50;4.97;;;;;;;30.18;39.66;100941.89;128791;1084;64651;-84
2021/08/09 10:59:41;;;;;;;13.00;4.37;;;;;;;30.18;39.05;100941.89;128424;1084;64146;-85
2021/08/09 11:02:35;;;;;;;10.87;4.30;;;;;;;30.17;39.09;100940.22;128896;1084;63575;-84
2021/08/09 11:05:34;;;;;;;12.57;4.40;;;;;;;30.18;38.93;100944.62;128454;1084;64051;-85
2021/08/09 11:08:29;;;;;;;12.93;3.97;;;;;;;30.18;39.22;100931.01;128248;1085;64253;-84
2021/08/09 11:11:03;;;;;;;9.30;4.10;;;;;;;30.18;38.89;100925.56;127607;1088;64183;-83
2021/08/09 11:13:50;;;;;;;10.63;4.23;;;;;;;30.18;39.44;100928.28;127579;1089;62482;-87
2021/08/09 11:16:30;;;;;;;17.13;4.40;;;;;;;30.18;39.53;100926.43;127592;1088;64183;-87
2021/08/09 11:18:57;;;;;;;13.77;5.03;;;;;;;30.18;39.08;100918.27;127597;1090;64043;-86
2021/08/09 11:21:25;;;;;;;14.70;4.33;;;;;;;30.20;39.46;100915.37;127637;1090;64105;-86
2021/08/09 11:23:52;;;;;;;12.07;4.63;;;;;;;30.19;39.18;100922.66;127651;1090;64285;-86
2021/08/09 11:26:20;;;;;;;17.63;4.90;;;;;;;30.20;38.94;100929.82;127700;1089;64235;-87